Time;durP1;ratioP1;P1;durP2;ratioP2;P2;SDS_P1;SDS_P2;PMS_P1;PMS_P2;Temp;Humidity;BMP_temperature;BMP_pressure;BME280_temperature;BME280_humidity;BME280_pressure;Samples;Min_cycle;Max_cycle;Signal;HPM_P1;HPM_P2
2024/01/21 00:01:25;;;;;;;10.27;4.57;;;;;;;;;;5060235;28;20213;-75
2024/01/21 00:03:51;;;;;;;7.43;4.60;;;;;;;;;;5079686;28;20225;-75
2024/01/21 00:06:17;;;;;;;10.60;4.93;;;;;;;;;;5056315;28;20213;-75
2024/01/21 00:08:44;;;;;;;9.93;5.00;;;;;;;;;;5063416;28;20186;-75
2024/01/21 00:11:10;;;;;;;9.23;4.30;;;;;;;;;;5075623;28;20645;-75
2024/01/21 00:13:36;;;;;;;7.97;5.43;;;;;;;;;;5080944;28;20767;-75
2024/01/21 00:16:02;;;;;;;10.43;5.20;;;;;;;;;;5078611;28;20216;-74
2024/01/21 00:18:28;;;;;;;12.07;4.93;;;;;;;;;;5059549;28;20176;-74
2024/01/21 00:20:54;;;;;;;9.93;4.83;;;;;;;;;;5078569;28;20187;-75
2024/01/21 00:23:20;;;;;;;12.63;5.50;;;;;;;;;;5061561;28;20233;-76
2024/01/21 00:25:46;;;;;;;8.77;5.13;;;;;;;;;;5078255;28;20215;-74
2024/01/21 00:28:12;;;;;;;13.17;5.63;;;;;;;;;;5077684;28;20210;-75
2024/01/21 00:30:38;;;;;;;9.83;4.40;;;;;;;;;;5077395;28;20580;-73
2024/01/21 00:33:04;;;;;;;10.03;4.67;;;;;;;;;;5080849;28;20255;-74
2024/01/21 00:35:30;;;;;;;7.57;4.37;;;;;;;;;;5061544;28;20215;-74
2024/01/21 00:37:56;;;;;;;11.67;5.23;;;;;;;;;;5076976;28;20218;-74
2024/01/21 00:40:22;;;;;;;9.87;5.23;;;;;;;;;;5073213;28;20588;-75
2024/01/21 00:42:48;;;;;;;9.23;5.37;;;;;;;;;;5062256;28;20218;-74
2024/01/21 00:45:14;;;;;;;8.83;5.33;;;;;;;;;;5077097;28;20179;-75
2024/01/21 00:47:40;;;;;;;9.83;5.03;;;;;;;;;;5082160;28;20238;-75
2024/01/21 00:50:06;;;;;;;11.07;5.63;;;;;;;;;;5077527;28;20274;-75
2024/01/21 00:52:32;;;;;;;14.17;5.47;;;;;;;;;;5076742;28;20261;-75
2024/01/21 00:54:58;;;;;;;11.60;4.93;;;;;;;;;;5079557;28;20214;-75
2024/01/21 00:57:24;;;;;;;9.07;4.97;;;;;;;;;;5076423;28;20726;-75
2024/01/21 00:59:50;;;;;;;12.70;4.67;;;;;;;;;;5080507;28;20282;-75
2024/01/21 01:02:16;;;;;;;12.03;5.40;;;;;;;;;;5074141;28;20212;-75
2024/01/21 01:04:42;;;;;;;10.70;4.90;;;;;;;;;;5077817;28;20207;-75
2024/01/21 01:07:08;;;;;;;11.90;5.80;;;;;;;;;;5078755;28;20232;-73
2024/01/21 01:09:36;;;;;;;8.87;4.93;;;;;;;;;;5084188;28;20226;-74
2024/01/21 01:12:02;;;;;;;13.10;5.97;;;;;;;;;;5073882;28;20593;-74
2024/01/21 01:14:28;;;;;;;10.13;4.73;;;;;;;;;;5081087;28;20200;-74
2024/01/21 01:16:54;;;;;;;11.60;4.80;;;;;;;;;;5061827;28;20227;-75
2024/01/21 01:19:23;;;;;;;12.10;5.30;;;;;;;;;;5057753;28;20685;-73
2024/01/21 01:21:49;;;;;;;10.53;5.00;;;;;;;;;;5073679;28;20208;-74
2024/01/21 01:24:15;;;;;;;8.70;5.00;;;;;;;;;;5075771;28;20546;-75
2024/01/21 01:26:41;;;;;;;11.70;5.40;;;;;;;;;;5060773;28;20204;-75
2024/01/21 01:29:07;;;;;;;8.40;4.77;;;;;;;;;;5073155;28;20707;-75
2024/01/21 01:31:33;;;;;;;8.17;4.20;;;;;;;;;;5072261;28;20196;-74
2024/01/21 01:33:59;;;;;;;10.60;5.03;;;;;;;;;;5078943;28;20222;-75
2024/01/21 01:36:25;;;;;;;8.67;4.53;;;;;;;;;;5075556;28;20189;-75
2024/01/21 01:38:51;;;;;;;11.17;4.60;;;;;;;;;;5079229;28;20192;-75
2024/01/21 01:41:17;;;;;;;6.93;4.13;;;;;;;;;;5076055;28;20293;-75
2024/01/21 01:43:43;;;;;;;8.57;4.20;;;;;;;;;;5076862;28;20262;-76
2024/01/21 01:46:09;;;;;;;11.73;4.43;;;;;;;;;;5059528;28;20226;-74
2024/01/21 01:48:35;;;;;;;7.73;4.30;;;;;;;;;;5074914;28;20543;-75
2024/01/21 01:51:03;;;;;;;10.87;5.33;;;;;;;;;;5061469;28;20191;-75
2024/01/21 01:53:31;;;;;;;8.70;4.20;;;;;;;;;;5076440;28;20290;-75
2024/01/21 01:55:57;;;;;;;8.03;4.47;;;;;;;;;;5077886;28;20602;-74
2024/01/21 01:58:24;;;;;;;7.80;3.93;;;;;;;;;;5056950;28;20662;-74
2024/01/21 02:00:52;;;;;;;7.33;4.40;;;;;;;;;;5080826;28;20221;-74
2024/01/21 02:03:18;;;;;;;6.43;4.47;;;;;;;;;;5075215;28;20217;-73
2024/01/21 02:05:44;;;;;;;7.93;3.90;;;;;;;;;;5061542;28;20185;-74
2024/01/21 02:08:10;;;;;;;8.03;4.27;;;;;;;;;;5076373;28;20200;-75
2024/01/21 02:10:36;;;;;;;9.50;3.87;;;;;;;;;;5053814;28;20295;-75
2024/01/21 02:13:02;;;;;;;8.47;3.97;;;;;;;;;;5080856;28;20205;-74
2024/01/21 02:15:28;;;;;;;8.63;4.07;;;;;;;;;;5057083;28;20296;-73
2024/01/21 02:17:54;;;;;;;10.03;4.50;;;;;;;;;;5061235;28;20232;-75
2024/01/21 02:20:20;;;;;;;8.67;4.13;;;;;;;;;;5075211;28;20207;-74
2024/01/21 02:22:47;;;;;;;8.97;4.23;;;;;;;;;;5076446;28;20740;-74
2024/01/21 02:25:13;;;;;;;8.27;4.20;;;;;;;;;;5077825;28;20211;-73
2024/01/21 02:27:39;;;;;;;9.30;4.47;;;;;;;;;;5075674;28;20222;-75
2024/01/21 02:30:05;;;;;;;7.53;4.33;;;;;;;;;;5079297;28;20184;-75
2024/01/21 02:32:31;;;;;;;6.47;3.37;;;;;;;;;;5048737;28;20629;-74
2024/01/21 02:34:57;;;;;;;9.40;4.37;;;;;;;;;;5082419;28;20776;-75
2024/01/21 02:37:23;;;;;;;7.93;4.33;;;;;;;;;;5076319;28;20309;-75
2024/01/21 02:39:49;;;;;;;13.07;4.37;;;;;;;;;;5081244;28;20210;-75
2024/01/21 02:42:16;;;;;;;7.80;3.70;;;;;;;;;;5042175;28;20742;-75
2024/01/21 02:44:42;;;;;;;10.43;4.87;;;;;;;;;;5079930;28;20201;-75
2024/01/21 02:47:08;;;;;;;6.90;4.27;;;;;;;;;;5082786;28;20211;-74
2024/01/21 02:49:34;;;;;;;7.70;3.80;;;;;;;;;;5080200;28;20210;-75
2024/01/21 02:52:00;;;;;;;10.57;3.53;;;;;;;;;;5083440;28;20210;-74
2024/01/21 02:54:26;;;;;;;8.13;3.70;;;;;;;;;;5081307;28;20176;-75
2024/01/21 02:56:52;;;;;;;4.77;3.50;;;;;;;;;;5080863;28;20191;-75
2024/01/21 02:59:18;;;;;;;7.70;3.97;;;;;;;;;;5080165;28;20804;-74
2024/01/21 03:01:44;;;;;;;11.60;5.00;;;;;;;;;;5078982;28;20756;-74
2024/01/21 03:04:13;;;;;;;6.03;3.67;;;;;;;;;;5082389;28;20234;-75
2024/01/21 03:06:43;;;;;;;8.13;3.97;;;;;;;;;;5080875;28;20218;-75
2024/01/21 03:09:09;;;;;;;10.63;3.90;;;;;;;;;;5079529;28;20180;-75
2024/01/21 03:11:39;;;;;;;9.30;4.37;;;;;;;;;;5079464;28;20179;-75
2024/01/21 03:14:07;;;;;;;7.53;3.67;;;;;;;;;;5080941;28;20238;-75
2024/01/21 03:16:33;;;;;;;6.50;3.93;;;;;;;;;;5060012;28;20274;-75
2024/01/21 03:18:59;;;;;;;8.17;3.53;;;;;;;;;;5063177;28;20214;-73
2024/01/21 03:21:25;;;;;;;5.57;3.77;;;;;;;;;;5066793;28;20186;-74
2024/01/21 03:23:51;;;;;;;9.43;4.13;;;;;;;;;;5076061;28;20200;-75
2024/01/21 03:26:17;;;;;;;10.20;3.70;;;;;;;;;;5074470;28;20210;-73
2024/01/21 03:28:43;;;;;;;5.60;3.20;;;;;;;;;;5072485;28;20214;-75
2024/01/21 03:31:09;;;;;;;6.83;3.47;;;;;;;;;;5077392;28;20233;-75
2024/01/21 03:33:35;;;;;;;7.17;3.60;;;;;;;;;;5078012;28;20210;-74
2024/01/21 03:36:01;;;;;;;10.37;3.87;;;;;;;;;;5077686;28;20187;-74
2024/01/21 03:38:27;;;;;;;8.50;4.37;;;;;;;;;;5075227;28;20349;-74
2024/01/21 03:40:53;;;;;;;6.97;3.83;;;;;;;;;;5074013;28;20692;-74
2024/01/21 03:43:19;;;;;;;4.53;3.13;;;;;;;;;;5077468;28;20226;-73
2024/01/21 03:45:45;;;;;;;4.67;3.30;;;;;;;;;;5076805;28;20215;-73
2024/01/21 03:48:11;;;;;;;5.77;3.27;;;;;;;;;;5078079;28;20186;-74
2024/01/21 03:50:37;;;;;;;7.17;3.57;;;;;;;;;;5057710;28;20180;-73
2024/01/21 03:53:03;;;;;;;8.47;4.20;;;;;;;;;;5073595;28;20235;-74
2024/01/21 03:55:29;;;;;;;5.83;3.07;;;;;;;;;;5076933;28;20279;-75
2024/01/21 03:57:55;;;;;;;6.80;3.63;;;;;;;;;;5082452;28;20251;-74
2024/01/21 04:00:21;;;;;;;4.60;3.03;;;;;;;;;;5077486;28;20183;-71
2024/01/21 04:02:47;;;;;;;8.60;3.70;;;;;;;;;;5077717;28;20249;-74
2024/01/21 04:05:13;;;;;;;7.37;4.07;;;;;;;;;;5068420;28;20214;-74
2024/01/21 04:07:39;;;;;;;8.60;3.20;;;;;;;;;;5070370;28;20215;-74
2024/01/21 04:10:07;;;;;;;5.87;3.20;;;;;;;;;;5079447;28;20215;-74
2024/01/21 04:12:33;;;;;;;7.63;3.77;;;;;;;;;;5058853;28;20299;-74
2024/01/21 04:14:59;;;;;;;10.23;4.83;;;;;;;;;;5076648;28;20210;-74
2024/01/21 04:17:25;;;;;;;7.23;3.63;;;;;;;;;;5074313;28;20239;-74
2024/01/21 04:19:51;;;;;;;7.60;3.73;;;;;;;;;;5076006;28;20704;-74
2024/01/21 04:22:18;;;;;;;8.20;3.60;;;;;;;;;;5075741;28;20210;-74
2024/01/21 04:24:45;;;;;;;4.93;3.33;;;;;;;;;;5054891;28;20690;-74
2024/01/21 04:27:11;;;;;;;6.03;3.17;;;;;;;;;;5074954;28;20299;-74
2024/01/21 04:29:37;;;;;;;7.00;3.70;;;;;;;;;;5073196;28;20306;-74
2024/01/21 04:32:03;;;;;;;8.13;3.73;;;;;;;;;;5072593;28;20212;-74
2024/01/21 04:34:29;;;;;;;6.47;3.50;;;;;;;;;;5068806;28;20562;-74
2024/01/21 04:36:55;;;;;;;7.10;3.53;;;;;;;;;;5074974;28;20214;-74
2024/01/21 04:39:21;;;;;;;6.10;3.20;;;;;;;;;;5076147;28;20309;-72
2024/01/21 04:41:47;;;;;;;7.33;3.23;;;;;;;;;;5071386;28;20179;-74
2024/01/21 04:44:13;;;;;;;6.43;3.67;;;;;;;;;;5076753;28;20210;-75
2024/01/21 04:46:39;;;;;;;6.33;3.47;;;;;;;;;;5056301;28;20241;-75
2024/01/21 04:49:05;;;;;;;6.77;3.70;;;;;;;;;;5063821;28;20831;-74
2024/01/21 04:51:31;;;;;;;8.30;3.33;;;;;;;;;;5064865;28;20636;-74
2024/01/21 04:53:57;;;;;;;6.57;3.33;;;;;;;;;;5075489;28;20212;-75
2024/01/21 04:56:23;;;;;;;5.87;3.50;;;;;;;;;;5074723;28;20225;-75
2024/01/21 04:58:50;;;;;;;6.47;3.77;;;;;;;;;;5077063;28;20207;-74
2024/01/21 05:01:16;;;;;;;7.63;4.57;;;;;;;;;;5070528;28;20907;-75
2024/01/21 05:03:42;;;;;;;7.23;3.47;;;;;;;;;;5074271;28;20216;-75
2024/01/21 05:06:08;;;;;;;7.93;4.27;;;;;;;;;;5076859;28;20715;-74
2024/01/21 05:08:34;;;;;;;6.90;3.50;;;;;;;;;;5071297;28;20209;-74
2024/01/21 05:11:01;;;;;;;4.97;2.87;;;;;;;;;;5077484;28;20709;-75
2024/01/21 05:13:27;;;;;;;5.93;3.13;;;;;;;;;;5044068;28;20212;-74
2024/01/21 05:15:53;;;;;;;5.33;3.57;;;;;;;;;;5073858;28;20215;-75
2024/01/21 05:18:20;;;;;;;6.13;3.17;;;;;;;;;;5058091;28;20174;-73
2024/01/21 05:20:46;;;;;;;6.30;3.37;;;;;;;;;;5063846;28;20163;-75
2024/01/21 05:23:12;;;;;;;4.57;2.73;;;;;;;;;;5076668;28;20263;-75
2024/01/21 05:25:38;;;;;;;5.87;3.57;;;;;;;;;;5073636;28;20697;-73
2024/01/21 05:28:04;;;;;;;7.03;3.27;;;;;;;;;;5074157;28;20207;-74
2024/01/21 05:30:31;;;;;;;6.77;3.70;;;;;;;;;;5074167;28;20214;-74
2024/01/21 05:32:57;;;;;;;5.23;3.20;;;;;;;;;;5073751;28;20694;-74
2024/01/21 05:35:22;;;;;;;8.57;3.57;;;;;;;;;;5079102;28;20213;-74
2024/01/21 05:37:49;;;;;;;7.77;3.50;;;;;;;;;;5076861;28;20206;-74
2024/01/21 05:40:15;;;;;;;6.80;3.83;;;;;;;;;;5076128;28;20198;-74
2024/01/21 05:42:41;;;;;;;8.97;3.63;;;;;;;;;;5076008;28;20340;-74
2024/01/21 05:45:07;;;;;;;7.03;4.07;;;;;;;;;;5076423;28;20662;-75
2024/01/21 05:47:34;;;;;;;6.83;3.50;;;;;;;;;;5060058;28;20233;-74
2024/01/21 05:50:00;;;;;;;6.93;3.10;;;;;;;;;;5077746;28;20213;-74
2024/01/21 05:52:26;;;;;;;7.60;3.80;;;;;;;;;;5076512;28;20302;-75
2024/01/21 05:54:52;;;;;;;7.60;3.57;;;;;;;;;;5076102;28;20221;-75
2024/01/21 05:57:18;;;;;;;5.63;3.23;;;;;;;;;;5078519;28;20184;-74
2024/01/21 05:59:44;;;;;;;8.40;3.10;;;;;;;;;;5073784;28;20247;-76
2024/01/21 06:02:10;;;;;;;8.23;3.33;;;;;;;;;;5047841;28;20227;-75
2024/01/21 06:04:36;;;;;;;10.10;3.43;;;;;;;;;;5072778;28;20611;-74
2024/01/21 06:07:02;;;;;;;6.33;3.37;;;;;;;;;;5077202;28;20329;-74
2024/01/21 06:09:28;;;;;;;7.07;3.27;;;;;;;;;;5069676;28;20239;-74
2024/01/21 06:11:54;;;;;;;5.93;3.50;;;;;;;;;;5072972;28;20221;-75
2024/01/21 06:14:20;;;;;;;8.37;4.00;;;;;;;;;;5067619;28;20219;-75
2024/01/21 06:16:46;;;;;;;7.20;4.03;;;;;;;;;;5068059;28;20214;-75
2024/01/21 06:19:12;;;;;;;6.33;3.73;;;;;;;;;;5070606;28;20210;-75
2024/01/21 06:21:43;;;;;;;6.57;3.30;;;;;;;;;;5068047;28;20634;-74
2024/01/21 06:24:09;;;;;;;6.40;3.70;;;;;;;;;;5046142;28;20181;-75
2024/01/21 06:26:37;;;;;;;7.97;3.50;;;;;;;;;;5075560;28;20663;-74
2024/01/21 06:29:03;;;;;;;7.10;3.33;;;;;;;;;;5077951;28;20206;-75
2024/01/21 06:31:29;;;;;;;5.97;3.43;;;;;;;;;;5076071;28;20206;-75
2024/01/21 06:33:55;;;;;;;5.33;3.83;;;;;;;;;;5057823;28;20215;-75
2024/01/21 06:36:25;;;;;;;4.30;3.37;;;;;;;;;;5077962;28;20183;-75
2024/01/21 06:38:51;;;;;;;7.80;4.30;;;;;;;;;;5074872;28;20180;-75
2024/01/21 06:41:17;;;;;;;6.03;3.50;;;;;;;;;;5078617;28;20211;-74
2024/01/21 06:43:43;;;;;;;6.97;3.77;;;;;;;;;;5057074;28;20437;-75
2024/01/21 06:46:09;;;;;;;5.00;2.70;;;;;;;;;;5077052;28;20777;-75
2024/01/21 06:48:35;;;;;;;8.40;4.37;;;;;;;;;;5067708;28;20209;-75
2024/01/21 06:51:09;;;;;;;6.60;3.40;;;;;;;;;;5075004;28;20180;-75
2024/01/21 06:53:35;;;;;;;6.23;3.47;;;;;;;;;;5077807;28;20207;-75
2024/01/21 06:56:06;;;;;;;6.23;3.50;;;;;;;;;;5080601;28;20216;-74
2024/01/21 06:58:32;;;;;;;6.33;3.20;;;;;;;;;;5074570;28;20252;-75
2024/01/21 07:00:59;;;;;;;5.43;3.27;;;;;;;;;;5071367;28;20817;-75
2024/01/21 07:03:25;;;;;;;6.90;4.03;;;;;;;;;;5075741;28;20210;-75
2024/01/21 07:05:51;;;;;;;6.37;3.40;;;;;;;;;;5076408;28;20208;-74
2024/01/21 07:08:17;;;;;;;6.80;3.10;;;;;;;;;;5057593;28;20198;-75
2024/01/21 07:10:43;;;;;;;5.70;3.73;;;;;;;;;;5074343;28;20819;-75
2024/01/21 07:13:10;;;;;;;6.07;3.30;;;;;;;;;;5054607;28;20754;-75
2024/01/21 07:15:36;;;;;;;5.83;3.30;;;;;;;;;;5070199;28;20210;-74
2024/01/21 07:18:02;;;;;;;7.37;3.23;;;;;;;;;;5076108;28;20309;-75
2024/01/21 07:20:28;;;;;;;6.30;3.53;;;;;;;;;;5079259;28;20718;-74
2024/01/21 07:22:55;;;;;;;7.27;3.30;;;;;;;;;;5064121;28;20222;-75
2024/01/21 07:25:21;;;;;;;7.43;4.13;;;;;;;;;;5061971;28;20211;-75
2024/01/21 07:27:48;;;;;;;5.97;3.70;;;;;;;;;;5076627;28;20714;-75
2024/01/21 07:30:14;;;;;;;6.07;3.40;;;;;;;;;;5081134;28;20270;-76
2024/01/21 07:32:41;;;;;;;4.33;2.77;;;;;;;;;;5082856;28;20669;-75
2024/01/21 07:35:09;;;;;;;5.70;2.87;;;;;;;;;;5078483;28;20210;-76
2024/01/21 07:37:35;;;;;;;5.97;3.17;;;;;;;;;;5081826;28;20208;-76
2024/01/21 07:40:01;;;;;;;4.70;2.87;;;;;;;;;;5060194;28;20218;-76
2024/01/21 07:42:27;;;;;;;6.00;3.07;;;;;;;;;;5078088;28;20211;-76
2024/01/21 07:44:53;;;;;;;4.83;3.03;;;;;;;;;;5078947;28;20673;-76
2024/01/21 07:47:19;;;;;;;5.73;3.00;;;;;;;;;;5082346;28;20719;-76
2024/01/21 07:49:46;;;;;;;5.43;2.83;;;;;;;;;;5062679;28;20830;-76
2024/01/21 07:52:12;;;;;;;3.87;2.70;;;;;;;;;;5056983;28;20705;-76
2024/01/21 07:54:38;;;;;;;7.73;2.93;;;;;;;;;;5080052;28;20212;-75
2024/01/21 07:57:05;;;;;;;5.50;3.00;;;;;;;;;;5078714;28;20185;-76
2024/01/21 07:59:31;;;;;;;4.50;2.60;;;;;;;;;;5073409;28;20207;-75
2024/01/21 08:01:57;;;;;;;6.60;2.80;;;;;;;;;;5077268;28;20324;-76
2024/01/21 08:04:23;;;;;;;5.57;3.13;;;;;;;;;;5082191;28;20291;-75
2024/01/21 08:06:49;;;;;;;4.07;2.33;;;;;;;;;;5078274;28;20218;-74
2024/01/21 08:09:15;;;;;;;3.27;2.30;;;;;;;;;;5077961;28;20227;-74
2024/01/21 08:11:42;;;;;;;5.13;2.80;;;;;;;;;;5078518;28;20227;-76
2024/01/21 08:14:08;;;;;;;5.23;2.90;;;;;;;;;;5079921;28;20298;-74
2024/01/21 08:16:34;;;;;;;3.77;1.87;;;;;;;;;;5074686;28;20705;-75
2024/01/21 08:19:00;;;;;;;4.90;3.03;;;;;;;;;;5077745;28;20214;-75
2024/01/21 08:21:26;;;;;;;3.47;2.20;;;;;;;;;;5078568;28;20660;-75
2024/01/21 08:23:52;;;;;;;6.30;2.80;;;;;;;;;;5079982;28;20211;-75
2024/01/21 08:26:18;;;;;;;4.80;2.00;;;;;;;;;;5079705;28;20214;-75
2024/01/21 08:28:44;;;;;;;3.67;2.30;;;;;;;;;;5074124;28;20517;-74
2024/01/21 08:31:10;;;;;;;6.13;2.77;;;;;;;;;;5077170;28;20205;-77
2024/01/21 08:33:36;;;;;;;5.23;1.80;;;;;;;;;;5079646;28;20220;-74
2024/01/21 08:36:02;;;;;;;4.57;2.30;;;;;;;;;;5077514;28;20179;-75
2024/01/21 08:38:29;;;;;;;4.23;2.40;;;;;;;;;;5082677;28;20292;-72
2024/01/21 08:40:54;;;;;;;4.33;2.13;;;;;;;;;;5076077;28;20199;-75
2024/01/21 08:43:20;;;;;;;6.90;2.67;;;;;;;;;;5078590;28;20630;-75
2024/01/21 08:45:47;;;;;;;3.87;2.17;;;;;;;;;;5077260;28;20293;-75
2024/01/21 08:48:13;;;;;;;3.50;2.13;;;;;;;;;;5066035;28;20228;-75
2024/01/21 08:50:39;;;;;;;4.20;2.27;;;;;;;;;;5061601;28;20184;-76
2024/01/21 08:53:05;;;;;;;3.07;2.17;;;;;;;;;;5077182;28;20218;-76
2024/01/21 08:55:31;;;;;;;2.53;1.30;;;;;;;;;;5078227;28;20257;-76
2024/01/21 08:57:57;;;;;;;3.67;1.90;;;;;;;;;;5076382;28;20203;-76
2024/01/21 09:00:23;;;;;;;2.87;1.90;;;;;;;;;;5062925;28;20208;-76
2024/01/21 09:02:49;;;;;;;5.17;2.30;;;;;;;;;;5077027;28;20228;-75
2024/01/21 09:05:15;;;;;;;3.77;1.57;;;;;;;;;;5060188;28;20241;-76
2024/01/21 09:07:41;;;;;;;5.07;2.37;;;;;;;;;;5077956;28;20219;-76
2024/01/21 09:10:08;;;;;;;5.17;2.10;;;;;;;;;;5075503;28;20218;-76
2024/01/21 09:12:35;;;;;;;3.23;1.70;;;;;;;;;;5078511;28;20274;-76
2024/01/21 09:15:01;;;;;;;2.60;1.43;;;;;;;;;;5076771;28;20208;-76
2024/01/21 09:17:27;;;;;;;3.57;2.30;;;;;;;;;;5079142;28;20724;-76
2024/01/21 09:19:53;;;;;;;3.10;1.87;;;;;;;;;;5057618;28;20334;-76
2024/01/21 09:22:19;;;;;;;5.20;2.50;;;;;;;;;;5072426;28;20241;-75
2024/01/21 09:24:45;;;;;;;3.03;1.60;;;;;;;;;;5076366;28;20697;-75
2024/01/21 09:27:11;;;;;;;2.63;1.60;;;;;;;;;;5054521;28;20209;-76
2024/01/21 09:29:37;;;;;;;5.30;2.00;;;;;;;;;;5068422;28;20242;-76
2024/01/21 09:32:03;;;;;;;2.47;1.40;;;;;;;;;;5067160;28;20305;-75
2024/01/21 09:34:29;;;;;;;2.70;1.80;;;;;;;;;;5081532;28;20219;-76
2024/01/21 09:36:55;;;;;;;6.00;2.23;;;;;;;;;;5075813;28;20221;-77
2024/01/21 09:39:21;;;;;;;2.53;1.60;;;;;;;;;;5076819;28;20176;-76
2024/01/21 09:41:51;;;;;;;4.10;2.00;;;;;;;;;;5068225;28;20191;-77
2024/01/21 09:44:35;;;;;;;6.23;1.93;;;;;;;;;;5074857;28;20215;-77
2024/01/21 09:47:02;;;;;;;3.27;2.13;;;;;;;;;;5077507;28;20215;-77
2024/01/21 09:49:28;;;;;;;3.03;1.57;;;;;;;;;;5066874;28;20226;-76
2024/01/21 09:51:55;;;;;;;5.33;1.87;;;;;;;;;;5076684;28;20312;-77
2024/01/21 09:54:22;;;;;;;6.77;1.37;;;;;;;;;;5054884;28;20641;-77
2024/01/21 09:56:48;;;;;;;2.67;1.33;;;;;;;;;;5079647;28;20538;-76
2024/01/21 09:59:15;;;;;;;1.87;1.17;;;;;;;;;;5076518;28;20296;-76
2024/01/21 10:01:42;;;;;;;2.63;1.33;;;;;;;;;;5074327;28;20565;-76
2024/01/21 10:04:11;;;;;;;4.47;1.53;;;;;;;;;;5075648;28;20213;-76
2024/01/21 10:06:37;;;;;;;2.53;1.70;;;;;;;;;;5080117;28;20241;-77
2024/01/21 10:09:22;;;;;;;7.47;1.40;;;;;;;;;;5076300;28;20685;-76
2024/01/21 10:11:59;;;;;;;2.57;1.30;;;;;;;;;;5076675;28;20218;-76
2024/01/21 10:14:28;;;;;;;3.10;1.10;;;;;;;;;;5095316;28;20206;-77
2024/01/21 10:16:55;;;;;;;2.07;0.77;;;;;;;;;;5078243;28;20220;-76
2024/01/21 10:19:26;;;;;;;3.97;1.27;;;;;;;;;;5060648;28;20212;-77
2024/01/21 10:21:52;;;;;;;1.50;0.97;;;;;;;;;;5074255;28;20216;-77
2024/01/21 10:24:23;;;;;;;2.77;1.30;;;;;;;;;;5088660;28;20191;-76
2024/01/21 10:26:49;;;;;;;3.23;1.70;;;;;;;;;;5072822;28;20201;-77
2024/01/21 10:29:15;;;;;;;3.80;1.70;;;;;;;;;;5074774;28;20208;-77
2024/01/21 10:31:41;;;;;;;1.90;1.57;;;;;;;;;;5082287;28;20194;-76
2024/01/21 10:34:09;;;;;;;1.93;1.30;;;;;;;;;;5059527;28;20300;-77
2024/01/21 10:36:35;;;;;;;3.03;1.20;;;;;;;;;;5081245;28;20205;-77
2024/01/21 10:39:06;;;;;;;2.30;1.97;;;;;;;;;;5066550;28;20177;-80
2024/01/21 10:41:33;;;;;;;4.47;1.63;;;;;;;;;;5057577;28;20207;-78
2024/01/21 10:44:00;;;;;;;2.93;1.43;;;;;;;;;;5074181;28;20234;-77
2024/01/21 10:46:26;;;;;;;7.37;1.27;;;;;;;;;;5074936;28;20218;-76
2024/01/21 10:48:55;;;;;;;1.77;1.13;;;;;;;;;;5080394;28;20217;-76
2024/01/21 10:51:22;;;;;;;8.77;1.63;;;;;;;;;;5079097;28;20167;-78
2024/01/21 10:53:53;;;;;;;2.83;1.40;;;;;;;;;;5080818;28;20186;-76
2024/01/21 10:56:20;;;;;;;2.60;1.40;;;;;;;;;;5052405;28;20222;-78
2024/01/21 10:58:49;;;;;;;2.13;1.17;;;;;;;;;;5075568;28;20265;-77
2024/01/21 11:01:16;;;;;;;2.93;1.50;;;;;;;;;;5076466;28;20245;-77
2024/01/21 11:03:43;;;;;;;2.27;1.47;;;;;;;;;;5082424;28;20306;-77
2024/01/21 11:06:10;;;;;;;3.47;1.10;;;;;;;;;;5077078;28;20267;-75
2024/01/21 11:08:36;;;;;;;3.20;1.63;;;;;;;;;;5063317;28;20205;-78
2024/01/21 11:11:13;;;;;;;1.37;1.07;;;;;;;;;;5082688;28;20644;-78
2024/01/21 11:13:42;;;;;;;4.07;1.60;;;;;;;;;;5055540;28;20241;-78
2024/01/21 11:16:12;;;;;;;6.60;1.70;;;;;;;;;;5081715;28;20280;-77
2024/01/21 11:18:38;;;;;;;5.63;1.63;;;;;;;;;;5081342;28;20237;-77
2024/01/21 11:21:04;;;;;;;2.53;1.50;;;;;;;;;;5083291;28;20252;-78
2024/01/21 11:23:30;;;;;;;3.83;1.40;;;;;;;;;;5067966;28;20773;-78
2024/01/21 11:25:56;;;;;;;2.17;1.27;;;;;;;;;;5080048;28;20206;-76
2024/01/21 11:28:27;;;;;;;1.87;1.37;;;;;;;;;;5080431;28;20207;-77
2024/01/21 11:30:59;;;;;;;2.30;1.27;;;;;;;;;;5079806;28;20267;-77
2024/01/21 11:33:25;;;;;;;2.87;1.30;;;;;;;;;;5081120;28;20332;-77
2024/01/21 11:35:53;;;;;;;3.10;1.50;;;;;;;;;;5082032;28;20258;-78
2024/01/21 11:38:19;;;;;;;4.17;1.50;;;;;;;;;;5081928;28;20210;-77
2024/01/21 11:40:45;;;;;;;5.67;1.50;;;;;;;;;;5063242;28;20228;-78
2024/01/21 11:43:11;;;;;;;3.27;1.30;;;;;;;;;;5079790;28;20221;-77
2024/01/21 11:45:38;;;;;;;4.90;1.57;;;;;;;;;;5081686;28;20222;-76
2024/01/21 11:48:10;;;;;;;2.50;1.27;;;;;;;;;;5078671;28;20198;-77
2024/01/21 11:50:36;;;;;;;2.00;1.27;;;;;;;;;;5064082;28;20237;-78
2024/01/21 11:53:02;;;;;;;1.43;1.10;;;;;;;;;;5080053;28;20218;-78
2024/01/21 11:55:28;;;;;;;2.20;1.30;;;;;;;;;;5059379;28;20249;-77
2024/01/21 11:57:54;;;;;;;3.60;1.23;;;;;;;;;;5081448;28;20214;-78
2024/01/21 12:00:20;;;;;;;1.80;1.07;;;;;;;;;;5060087;28;20275;-77
2024/01/21 12:02:46;;;;;;;3.57;1.77;;;;;;;;;;5060081;28;20194;-77
2024/01/21 12:05:18;;;;;;;5.43;1.67;;;;;;;;;;5079159;28;20204;-78
2024/01/21 12:07:44;;;;;;;1.97;1.20;;;;;;;;;;5064475;28;20218;-79
2024/01/21 12:10:10;;;;;;;2.33;1.00;;;;;;;;;;5082919;28;20219;-79
2024/01/21 12:12:36;;;;;;;7.40;1.40;;;;;;;;;;5083751;28;20284;-80
2024/01/21 12:15:02;;;;;;;1.30;0.77;;;;;;;;;;5084996;28;20186;-76
2024/01/21 12:17:28;;;;;;;2.60;1.20;;;;;;;;;;5087599;28;20210;-78
2024/01/21 12:19:54;;;;;;;2.37;1.20;;;;;;;;;;5082259;28;20301;-78
2024/01/21 12:22:35;;;;;;;3.43;1.60;;;;;;;;;;5089337;28;20207;-76
2024/01/21 12:25:01;;;;;;;1.80;1.00;;;;;;;;;;5087838;28;20212;-78
2024/01/21 12:27:27;;;;;;;3.10;0.97;;;;;;;;;;5084879;28;20205;-79
2024/01/21 12:29:53;;;;;;;4.13;1.47;;;;;;;;;;5078963;28;20218;-78
2024/01/21 12:32:19;;;;;;;2.57;1.27;;;;;;;;;;5079595;28;20262;-77
2024/01/21 12:34:45;;;;;;;1.40;1.10;;;;;;;;;;5083338;28;20680;-77
2024/01/21 12:37:12;;;;;;;3.07;1.17;;;;;;;;;;5077248;28;20350;-77
2024/01/21 12:39:40;;;;;;;2.33;1.47;;;;;;;;;;5074822;28;20211;-77
2024/01/21 12:42:06;;;;;;;1.90;1.20;;;;;;;;;;5077772;28;20719;-78
2024/01/21 12:44:32;;;;;;;2.93;1.33;;;;;;;;;;5061408;28;20207;-78
2024/01/21 12:46:58;;;;;;;1.37;1.10;;;;;;;;;;5076995;28;20252;-78
2024/01/21 12:49:24;;;;;;;2.73;1.33;;;;;;;;;;5065369;28;20212;-79
2024/01/21 12:51:50;;;;;;;1.83;1.07;;;;;;;;;;5085353;28;20222;-78
2024/01/21 12:54:16;;;;;;;3.80;1.33;;;;;;;;;;5063028;28;20218;-79
2024/01/21 12:56:42;;;;;;;2.30;1.20;;;;;;;;;;5083637;28;20175;-79
2024/01/21 12:59:08;;;;;;;3.53;1.20;;;;;;;;;;5080906;28;20215;-78
2024/01/21 13:01:35;;;;;;;2.33;1.20;;;;;;;;;;5063482;28;20207;-77
2024/01/21 13:04:01;;;;;;;2.37;1.30;;;;;;;;;;5085651;28;20214;-78
2024/01/21 13:06:27;;;;;;;3.10;1.53;;;;;;;;;;5062273;28;20688;-78
2024/01/21 13:08:53;;;;;;;1.57;1.20;;;;;;;;;;5084752;28;20180;-79
2024/01/21 13:11:20;;;;;;;3.07;1.17;;;;;;;;;;5070131;28;20211;-77
2024/01/21 13:13:46;;;;;;;2.90;1.70;;;;;;;;;;5066190;28;20274;-78
2024/01/21 13:16:12;;;;;;;4.47;1.40;;;;;;;;;;5073456;28;20723;-78
2024/01/21 13:18:39;;;;;;;3.87;1.53;;;;;;;;;;5071914;28;20214;-77
2024/01/21 13:21:07;;;;;;;5.10;1.40;;;;;;;;;;5064067;28;20183;-78
2024/01/21 13:23:33;;;;;;;2.73;1.43;;;;;;;;;;5063266;28;20232;-78
2024/01/21 13:25:59;;;;;;;2.43;1.73;;;;;;;;;;5076987;28;20218;-79
2024/01/21 13:30:53;;;;;;;3.20;1.30;;;;;;;;;;5077251;28;20596;-78
2024/01/21 13:33:28;;;;;;;2.80;1.40;;;;;;;;;;5084736;28;20201;-78
2024/01/21 13:35:54;;;;;;;2.73;1.50;;;;;;;;;;5076853;28;20209;-78
2024/01/21 13:38:22;;;;;;;3.73;1.43;;;;;;;;;;5059423;28;20305;-77
2024/01/21 13:40:48;;;;;;;2.53;1.40;;;;;;;;;;5080260;28;20291;-78
2024/01/21 13:43:15;;;;;;;2.27;1.40;;;;;;;;;;5074978;28;20242;-78
2024/01/21 13:45:41;;;;;;;2.50;1.40;;;;;;;;;;5060058;28;20222;-78
2024/01/21 13:48:07;;;;;;;2.37;1.07;;;;;;;;;;5082618;28;20334;-78
2024/01/21 13:50:34;;;;;;;4.87;1.63;;;;;;;;;;5081442;28;20205;-78
2024/01/21 13:53:01;;;;;;;1.83;1.20;;;;;;;;;;5082815;28;20234;-79
2024/01/21 13:55:27;;;;;;;3.03;1.43;;;;;;;;;;5068462;28;20202;-78
2024/01/21 13:57:53;;;;;;;4.40;1.60;;;;;;;;;;5087989;28;20210;-79
2024/01/21 14:00:22;;;;;;;4.30;1.60;;;;;;;;;;5083547;28;20185;-77
2024/01/21 14:02:49;;;;;;;3.57;1.90;;;;;;;;;;5078864;28;20200;-76
2024/01/21 14:05:15;;;;;;;2.77;1.53;;;;;;;;;;5080695;28;20210;-78
2024/01/21 14:07:41;;;;;;;2.80;1.53;;;;;;;;;;5082122;28;20231;-79
2024/01/21 14:10:08;;;;;;;4.93;1.50;;;;;;;;;;5079189;28;20258;-78
2024/01/21 14:12:35;;;;;;;2.70;1.40;;;;;;;;;;5079156;28;20271;-78
2024/01/21 14:15:01;;;;;;;2.93;1.60;;;;;;;;;;5082205;28;20182;-79
2024/01/21 14:17:28;;;;;;;2.77;1.90;;;;;;;;;;5082705;28;20235;-79
2024/01/21 14:19:54;;;;;;;5.27;2.33;;;;;;;;;;5085031;28;20218;-79
2024/01/21 14:22:20;;;;;;;1.63;1.40;;;;;;;;;;5080276;28;20766;-78
2024/01/21 14:24:46;;;;;;;4.27;1.63;;;;;;;;;;5085250;28;20218;-78
2024/01/21 14:27:13;;;;;;;4.53;1.70;;;;;;;;;;5082602;28;20201;-79
2024/01/21 14:29:40;;;;;;;2.00;1.43;;;;;;;;;;5084390;28;20200;-77
2024/01/21 14:32:06;;;;;;;2.43;1.30;;;;;;;;;;5080641;28;20227;-79
2024/01/21 14:34:32;;;;;;;3.90;1.87;;;;;;;;;;5077475;28;20206;-79
2024/01/21 14:36:58;;;;;;;2.87;1.60;;;;;;;;;;5064529;28;20209;-78
2024/01/21 14:39:24;;;;;;;5.77;1.87;;;;;;;;;;5083097;28;20184;-79